createdAt,value
2018-09-18T00:02:21.644Z,3.10
2018-09-18T00:04:51.316Z,2.80
2018-09-18T00:07:20.980Z,2.80
2018-09-18T00:09:50.656Z,3.00
2018-09-18T00:12:20.330Z,2.83
2018-09-18T00:14:49.993Z,2.93
2018-09-18T00:17:19.681Z,2.90
2018-09-18T00:19:49.336Z,2.80
2018-09-18T00:22:19.076Z,2.90
2018-09-18T00:24:48.742Z,2.93
2018-09-18T00:27:18.396Z,3.23
2018-09-18T00:29:48.069Z,2.63
2018-09-18T00:32:17.935Z,3.00
2018-09-18T00:34:47.602Z,2.70
2018-09-18T00:37:17.344Z,2.80
2018-09-18T00:39:47.011Z,2.93
2018-09-18T00:42:16.655Z,2.50
2018-09-18T00:44:46.337Z,3.00
2018-09-18T00:47:15.976Z,3.07
2018-09-18T00:49:45.632Z,3.00
2018-09-18T00:52:15.338Z,2.77
2018-09-18T00:54:44.979Z,3.00
2018-09-18T00:57:14.681Z,2.70
2018-09-18T00:59:44.327Z,2.80
2018-09-18T01:02:14.008Z,3.00
2018-09-18T01:04:43.654Z,2.80
2018-09-18T01:07:13.331Z,2.80
2018-09-18T01:09:42.974Z,2.90
2018-09-18T01:12:12.657Z,2.83
2018-09-18T01:14:42.381Z,2.60
2018-09-18T01:17:12.011Z,3.20
2018-09-18T01:19:41.732Z,2.87
2018-09-18T01:22:11.368Z,2.90
2018-09-18T01:24:41.080Z,2.97
2018-09-18T01:27:10.735Z,2.77
2018-09-18T01:29:40.368Z,3.00
2018-09-18T01:32:10.052Z,2.90
2018-09-18T01:34:39.700Z,3.43
2018-09-18T01:37:09.343Z,2.70
2018-09-18T01:39:39.022Z,2.73
2018-09-18T01:42:08.680Z,3.10
2018-09-18T01:44:38.312Z,2.47
2018-09-18T01:47:07.992Z,2.83
2018-09-18T01:49:37.632Z,2.80
2018-09-18T01:52:07.324Z,3.30
2018-09-18T01:54:36.947Z,3.20
2018-09-18T01:57:07.589Z,3.30
2018-09-18T01:59:37.283Z,2.30
2018-09-18T02:02:06.964Z,2.53
2018-09-18T02:04:36.648Z,2.77
2018-09-18T02:07:06.331Z,2.83
2018-09-18T02:09:35.996Z,2.70
2018-09-18T02:12:05.649Z,3.00
2018-09-18T02:14:35.300Z,2.80
2018-09-18T02:17:04.964Z,2.77
2018-09-18T02:19:34.664Z,2.50
2018-09-18T02:22:04.327Z,2.87
2018-09-18T02:24:33.996Z,2.60
2018-09-18T02:27:03.677Z,2.70
2018-09-18T02:29:33.360Z,2.70
2018-09-18T02:32:03.004Z,2.83
2018-09-18T02:34:32.692Z,2.93
2018-09-18T02:37:02.360Z,3.00
2018-09-18T02:39:32.022Z,2.73
2018-09-18T02:42:01.699Z,2.90
2018-09-18T02:44:31.353Z,3.10
2018-09-18T02:47:01.100Z,2.93
2018-09-18T02:49:30.744Z,2.60
2018-09-18T02:52:00.368Z,2.70
2018-09-18T02:54:30.827Z,3.20
2018-09-18T02:57:00.485Z,2.80
2018-09-18T02:59:30.196Z,3.00
2018-09-18T03:01:59.847Z,3.10
2018-09-18T03:04:29.497Z,3.00
2018-09-18T03:06:59.248Z,2.80
2018-09-18T03:09:28.887Z,2.87
2018-09-18T03:11:58.519Z,2.90
2018-09-18T03:14:28.204Z,3.60
2018-09-18T03:16:57.864Z,2.90
2018-09-18T03:19:27.520Z,3.17
2018-09-18T03:21:57.197Z,3.10
2018-09-18T03:24:26.872Z,2.90
2018-09-18T03:26:56.543Z,3.03
2018-09-18T03:29:26.236Z,2.50
2018-09-18T03:31:55.922Z,2.67
2018-09-18T03:34:25.555Z,2.47
2018-09-18T03:36:55.251Z,2.80
2018-09-18T03:39:24.889Z,2.90
2018-09-18T03:41:54.540Z,3.23
2018-09-18T03:44:24.236Z,2.97
2018-09-18T03:46:53.988Z,3.23
2018-09-18T03:49:23.635Z,2.63
2018-09-18T03:51:53.321Z,2.90
2018-09-18T03:54:22.978Z,3.00
2018-09-18T03:56:52.901Z,2.73
2018-09-18T03:59:22.564Z,2.97
2018-09-18T04:01:52.296Z,2.53
2018-09-18T04:04:21.928Z,2.87
2018-09-18T04:06:51.594Z,2.77
2018-09-18T04:09:21.281Z,2.87
2018-09-18T04:11:50.940Z,2.90
2018-09-18T04:14:20.581Z,2.80
2018-09-18T04:16:50.276Z,2.90
2018-09-18T04:19:19.942Z,3.13
2018-09-18T04:21:49.619Z,2.90
2018-09-18T04:24:20.186Z,2.80
2018-09-18T04:26:49.852Z,2.70
2018-09-18T04:29:19.493Z,2.70
2018-09-18T04:31:49.152Z,2.87
2018-09-18T04:34:18.824Z,3.10
2018-09-18T04:36:48.472Z,2.80
2018-09-18T04:39:18.155Z,2.80
2018-09-18T04:41:47.807Z,2.90
2018-09-18T04:44:17.480Z,2.77
2018-09-18T04:46:47.132Z,2.60
2018-09-18T04:49:16.846Z,2.70
2018-09-18T04:51:46.522Z,2.70
2018-09-18T04:54:16.153Z,2.40
2018-09-18T04:56:45.794Z,3.03
2018-09-18T04:59:15.509Z,2.80
2018-09-18T05:01:45.244Z,2.97
2018-09-18T05:04:14.896Z,2.53
2018-09-18T05:06:44.616Z,2.90
2018-09-18T05:09:14.337Z,3.00
2018-09-18T05:11:44.268Z,3.20
2018-09-18T05:14:13.924Z,3.20
2018-09-18T05:16:43.540Z,3.00
2018-09-18T05:19:13.212Z,2.90
2018-09-18T05:21:42.876Z,3.17
2018-09-18T05:24:12.547Z,3.00
2018-09-18T05:26:42.194Z,3.23
2018-09-18T05:29:11.891Z,2.93
2018-09-18T05:31:41.524Z,3.10
2018-09-18T05:34:11.196Z,3.10
2018-09-18T05:36:40.880Z,3.10
2018-09-18T05:39:11.780Z,3.00
2018-09-18T05:41:41.435Z,2.77
2018-09-18T05:44:11.104Z,3.03
2018-09-18T05:46:40.780Z,2.87
2018-09-18T05:49:10.472Z,3.33
2018-09-18T05:51:40.113Z,3.00
2018-09-18T05:54:09.824Z,3.03
2018-09-18T05:56:39.465Z,2.70
2018-09-18T05:59:09.293Z,2.87
2018-09-18T06:01:38.922Z,2.60
2018-09-18T06:04:08.712Z,2.80
2018-09-18T06:06:38.363Z,3.00
2018-09-18T06:09:10.605Z,2.70
2018-09-18T06:11:40.265Z,2.80
2018-09-18T06:14:10.265Z,2.80
2018-09-18T06:16:39.904Z,2.70
2018-09-18T06:19:09.699Z,2.90
2018-09-18T06:21:39.332Z,2.73
2018-09-18T06:24:09.191Z,2.70
2018-09-18T06:26:38.865Z,2.27
2018-09-18T06:29:08.512Z,2.90
2018-09-18T06:31:38.176Z,2.80
2018-09-18T06:34:07.839Z,2.90
2018-09-18T06:36:37.531Z,2.63
2018-09-18T06:39:09.353Z,2.63
2018-09-18T06:41:39.222Z,2.43
2018-09-18T06:44:08.905Z,2.40
2018-09-18T06:46:38.588Z,2.70
2018-09-18T06:49:08.280Z,2.43
2018-09-18T06:51:37.956Z,2.47
2018-09-18T06:54:07.792Z,2.50
2018-09-18T06:56:37.492Z,2.50
2018-09-18T06:59:07.164Z,2.57
2018-09-18T07:01:36.832Z,2.27
2018-09-18T07:04:06.536Z,2.43
2018-09-18T07:06:36.231Z,2.30
2018-09-18T07:09:07.614Z,2.20
2018-09-18T07:11:37.286Z,2.60
2018-09-18T07:14:07.092Z,2.77
2018-09-18T07:16:36.816Z,2.50
2018-09-18T07:19:06.733Z,2.43
2018-09-18T07:21:36.712Z,2.50
2018-09-18T07:24:06.384Z,2.67
2018-09-18T07:26:36.055Z,2.23
2018-09-18T07:29:05.712Z,2.40
2018-09-18T07:31:35.403Z,2.43
2018-09-18T07:34:05.080Z,2.50
2018-09-18T07:36:34.748Z,2.40
2018-09-18T07:39:05.952Z,2.30
2018-09-18T07:41:35.620Z,2.53
2018-09-18T07:44:05.316Z,2.80
2018-09-18T07:46:34.968Z,2.20
2018-09-18T07:49:05.601Z,2.30
2018-09-18T07:51:35.872Z,2.40
2018-09-18T07:54:05.625Z,2.37
2018-09-18T07:56:35.268Z,2.43
2018-09-18T07:59:04.928Z,2.43
2018-09-18T08:01:34.685Z,2.50
2018-09-18T08:04:04.341Z,2.50
2018-09-18T08:06:34.164Z,2.17
2018-09-18T08:09:04.265Z,2.40
2018-09-18T08:11:33.924Z,2.80
2018-09-18T08:14:03.657Z,2.37
2018-09-18T08:16:33.352Z,2.60
2018-09-18T08:19:03.116Z,2.43
2018-09-18T08:21:32.741Z,2.27
2018-09-18T08:24:02.448Z,2.50
2018-09-18T08:26:32.156Z,2.37
2018-09-18T08:29:02.417Z,2.23
2018-09-18T08:31:32.127Z,2.40
2018-09-18T08:34:01.927Z,2.20
2018-09-18T08:36:31.700Z,2.30
2018-09-18T08:39:01.393Z,2.07
2018-09-18T08:41:31.040Z,2.03
2018-09-18T08:44:00.934Z,2.80
2018-09-18T08:46:30.582Z,2.50
2018-09-18T08:49:00.362Z,2.77
2018-09-18T08:51:30.204Z,2.60
2018-09-18T08:53:59.898Z,2.22
2018-09-18T08:56:29.618Z,2.70
2018-09-18T08:58:59.349Z,2.50
2018-09-18T09:01:29.010Z,2.42
2018-09-18T09:03:58.762Z,2.35
2018-09-18T09:06:28.885Z,2.50
2018-09-18T09:08:58.615Z,2.27
2018-09-18T09:11:28.552Z,2.40
2018-09-18T09:13:58.250Z,2.27
2018-09-18T09:16:27.918Z,2.58
2018-09-18T09:18:57.600Z,2.30
2018-09-18T09:21:27.391Z,2.70
2018-09-18T09:23:56.980Z,2.45
2018-09-18T09:26:26.657Z,2.45
2018-09-18T09:28:56.324Z,2.20
2018-09-18T09:31:26.036Z,2.37
2018-09-18T09:33:55.734Z,2.67
2018-09-18T09:36:25.434Z,2.67
2018-09-18T09:38:55.142Z,2.33
2018-09-18T09:41:24.821Z,2.42
2018-09-18T09:43:54.492Z,2.37
2018-09-18T09:46:24.170Z,2.60
2018-09-18T09:48:53.872Z,2.60
2018-09-18T09:51:23.556Z,2.40
2018-09-18T09:53:53.236Z,2.40
2018-09-18T09:56:22.880Z,2.40
2018-09-18T09:58:52.552Z,2.72
2018-09-18T10:01:27.310Z,2.33
2018-09-18T10:03:57.279Z,2.20
2018-09-18T10:06:27.403Z,2.17
2018-09-18T10:08:57.100Z,2.50
2018-09-18T10:11:26.752Z,2.30
2018-09-18T10:13:59.417Z,2.58
2018-09-18T10:16:29.112Z,2.40
2018-09-18T10:18:58.773Z,2.77
2018-09-18T10:21:28.445Z,2.30
2018-09-18T10:23:58.107Z,2.67
2018-09-18T10:26:27.944Z,2.22
2018-09-18T10:28:57.675Z,3.02
2018-09-18T10:31:27.367Z,2.52
2018-09-18T10:33:57.079Z,2.52
2018-09-18T10:36:26.735Z,2.80
2018-09-18T10:38:56.438Z,2.60
2018-09-18T10:41:26.683Z,2.37
2018-09-18T10:43:56.591Z,2.58
2018-09-18T10:46:26.281Z,2.20
2018-09-18T10:48:58.041Z,2.58
2018-09-18T10:51:27.696Z,2.77
2018-09-18T10:53:57.347Z,3.00
2018-09-18T10:56:27.028Z,2.58
2018-09-18T10:58:56.652Z,2.50
2018-09-18T11:01:26.293Z,2.87
2018-09-18T11:03:56.012Z,2.37
2018-09-18T11:06:25.636Z,2.50
2018-09-18T11:08:55.339Z,2.40
2018-09-18T11:11:25.072Z,2.65
2018-09-18T11:13:55.042Z,2.45
2018-09-18T11:16:24.728Z,2.42
2018-09-18T11:18:54.430Z,2.77
2018-09-18T11:21:24.110Z,2.42
2018-09-18T11:23:53.756Z,2.20
2018-09-18T11:26:23.436Z,2.35
2018-09-18T11:28:53.137Z,2.65
2018-09-18T11:31:22.896Z,2.40
2018-09-18T11:33:52.466Z,2.45
2018-09-18T11:36:22.136Z,2.35
2018-09-18T11:38:51.815Z,2.35
2018-09-18T11:41:21.496Z,2.55
2018-09-18T11:43:51.139Z,2.70
2018-09-18T11:46:20.814Z,2.40
2018-09-18T11:48:50.520Z,2.47
2018-09-18T11:51:20.597Z,2.17
2018-09-18T11:53:50.241Z,2.20
2018-09-18T11:56:19.928Z,2.87
2018-09-18T11:58:49.564Z,2.70
2018-09-18T12:01:19.260Z,2.30
2018-09-18T12:03:48.901Z,2.47
2018-09-18T12:06:18.528Z,2.77
2018-09-18T12:08:48.247Z,2.58
2018-09-18T12:11:18.293Z,2.70
2018-09-18T12:13:48.180Z,2.30
2018-09-18T12:16:17.812Z,2.22
2018-09-18T12:18:47.452Z,2.40
2018-09-18T12:21:17.150Z,2.20
2018-09-18T12:23:46.864Z,2.40
2018-09-18T12:26:16.502Z,2.55
2018-09-18T12:28:46.263Z,2.50
2018-09-18T12:31:15.904Z,2.22
2018-09-18T12:33:45.536Z,2.20
2018-09-18T12:36:15.292Z,2.20
2018-09-18T12:38:44.929Z,2.12
2018-09-18T12:41:14.574Z,2.60
2018-09-18T12:43:44.260Z,2.90
2018-09-18T12:46:13.945Z,2.25
2018-09-18T12:48:43.645Z,2.10
2018-09-18T12:51:13.400Z,2.27
2018-09-18T12:53:43.072Z,2.30
2018-09-18T12:56:12.886Z,2.12
2018-09-18T12:58:42.420Z,2.42
2018-09-18T13:01:12.060Z,2.02
2018-09-18T13:03:41.729Z,2.22
2018-09-18T13:06:11.467Z,2.40
2018-09-18T13:08:41.107Z,2.25
2018-09-18T13:11:10.793Z,2.40
2018-09-18T13:13:40.517Z,1.98
2018-09-18T13:16:10.183Z,2.67
2018-09-18T13:18:39.917Z,2.67
2018-09-18T13:21:09.603Z,2.62
2018-09-18T13:23:39.263Z,2.27
2018-09-18T13:26:09.161Z,2.55
2018-09-18T13:28:38.838Z,2.65
2018-09-18T13:31:08.528Z,2.52
2018-09-18T13:33:38.169Z,2.45
2018-09-18T13:36:07.862Z,2.15
2018-09-18T13:38:37.512Z,2.60
2018-09-18T13:41:07.225Z,2.10
2018-09-18T13:43:36.862Z,2.22
2018-09-18T13:46:06.600Z,2.67
2018-09-18T13:48:36.273Z,2.20
2018-09-18T13:51:05.956Z,2.37
2018-09-18T13:53:35.668Z,2.35
2018-09-18T13:56:05.379Z,2.20
2018-09-18T13:58:35.064Z,2.40
2018-09-18T14:01:04.766Z,2.47
2018-09-18T14:03:34.457Z,2.45
2018-09-18T14:06:04.088Z,2.60
2018-09-18T14:08:33.765Z,2.85
2018-09-18T14:11:03.423Z,2.67
2018-09-18T14:13:33.120Z,2.50
2018-09-18T14:16:02.757Z,2.37
2018-09-18T14:18:32.404Z,2.33
2018-09-18T14:21:02.177Z,2.60
2018-09-18T14:23:31.810Z,2.70
2018-09-18T14:26:01.513Z,2.25
2018-09-18T14:28:31.136Z,2.20
2018-09-18T14:31:00.788Z,2.10
2018-09-18T14:33:30.441Z,2.60
2018-09-18T14:36:00.056Z,2.40
2018-09-18T14:38:29.738Z,2.37
2018-09-18T14:40:59.468Z,2.35
2018-09-18T14:43:29.162Z,2.52
2018-09-18T14:45:58.800Z,2.67
2018-09-18T14:48:28.476Z,2.55
2018-09-18T14:50:58.231Z,2.95
2018-09-18T14:53:27.921Z,2.27
2018-09-18T14:55:57.558Z,2.80
2018-09-18T14:58:27.256Z,2.55
2018-09-18T15:00:56.892Z,2.30
2018-09-18T15:03:26.588Z,2.55
2018-09-18T15:05:56.232Z,2.42
2018-09-18T15:08:25.891Z,2.55
2018-09-18T15:10:55.547Z,2.85
2018-09-18T15:13:25.177Z,2.62
2018-09-18T15:15:54.895Z,2.83
2018-09-18T15:18:24.536Z,2.72
2018-09-18T15:20:54.221Z,2.77
2018-09-18T15:23:23.864Z,2.75
2018-09-18T15:25:53.548Z,2.47
2018-09-18T15:28:23.201Z,2.10
2018-09-18T15:30:52.868Z,2.55
2018-09-18T15:33:22.542Z,2.52
2018-09-18T15:35:52.180Z,2.70
2018-09-18T15:38:21.883Z,3.00
2018-09-18T15:40:51.532Z,2.90
2018-09-18T15:43:21.196Z,2.50
2018-09-18T15:45:50.919Z,2.50
2018-09-18T15:48:20.633Z,2.60
2018-09-18T15:50:50.245Z,2.52
2018-09-18T15:53:19.943Z,2.37
2018-09-18T15:55:49.609Z,2.50
2018-09-18T15:58:19.334Z,3.05
2018-09-18T16:00:48.986Z,2.27
2018-09-18T16:03:18.689Z,2.80
2018-09-18T16:05:48.348Z,2.37
2018-09-18T16:08:18.024Z,2.60
2018-09-18T16:10:47.672Z,2.67
2018-09-18T16:13:17.336Z,2.80
2018-09-18T16:15:47.031Z,2.10
2018-09-18T16:18:16.667Z,2.98
2018-09-18T16:20:46.329Z,2.35
2018-09-18T16:23:16.046Z,2.95
2018-09-18T16:25:45.701Z,3.20
2018-09-18T16:28:15.412Z,2.60
2018-09-18T16:30:45.109Z,2.62
2018-09-18T16:33:14.728Z,2.45
2018-09-18T16:35:44.421Z,2.42
2018-09-18T16:38:14.056Z,2.37
2018-09-18T16:40:43.764Z,2.33
2018-09-18T16:43:13.446Z,2.58
2018-09-18T16:45:43.144Z,2.33
2018-09-18T16:48:12.788Z,2.70
2018-09-18T16:50:42.450Z,2.40
2018-09-18T16:53:12.117Z,2.45
2018-09-18T16:55:41.794Z,2.72
2018-09-18T16:58:11.476Z,2.65
2018-09-18T17:00:41.186Z,2.60
2018-09-18T17:03:10.882Z,2.77
2018-09-18T17:05:40.580Z,2.47
2018-09-18T17:08:10.292Z,2.80
2018-09-18T17:10:39.951Z,2.75
2018-09-18T17:13:09.645Z,2.65
2018-09-18T17:15:39.322Z,2.42
2018-09-18T17:18:09.008Z,2.40
2018-09-18T17:20:38.652Z,2.80
2018-09-18T17:23:08.325Z,2.33
2018-09-18T17:25:37.981Z,2.70
2018-09-18T17:28:07.688Z,2.95
2018-09-18T17:30:37.412Z,2.75
2018-09-18T17:33:07.100Z,2.40
2018-09-18T17:35:36.768Z,2.77
2018-09-18T17:38:06.652Z,2.80
2018-09-18T17:40:36.358Z,2.83
2018-09-18T17:43:06.053Z,2.65
2018-09-18T17:45:35.688Z,3.05
2018-09-18T17:48:05.385Z,2.72
2018-09-18T17:50:35.081Z,2.65
2018-09-18T17:53:04.815Z,2.55
2018-09-18T17:55:34.489Z,2.83
2018-09-18T17:58:04.564Z,2.98
2018-09-18T18:00:34.242Z,3.00
2018-09-18T18:03:03.906Z,2.70
2018-09-18T18:05:33.611Z,2.80
2018-09-18T18:08:03.321Z,2.85
2018-09-18T18:10:33.015Z,2.75
2018-09-18T18:13:02.651Z,3.17
2018-09-18T18:15:32.319Z,3.17
2018-09-18T18:18:02.661Z,2.90
2018-09-18T18:20:32.568Z,2.70
2018-09-18T18:23:02.233Z,2.72
2018-09-18T18:25:31.878Z,3.10
2018-09-18T18:28:01.524Z,2.95
2018-09-18T18:30:31.240Z,3.30
2018-09-18T18:33:00.916Z,2.75
2018-09-18T18:35:30.647Z,2.95
2018-09-18T18:38:00.280Z,3.12
2018-09-18T18:40:29.923Z,2.80
2018-09-18T18:42:59.622Z,3.35
2018-09-18T18:45:29.269Z,5.05
2018-09-18T18:47:59.045Z,3.62
2018-09-18T18:50:28.631Z,3.52
2018-09-18T18:52:58.288Z,3.37
2018-09-18T18:55:27.982Z,2.77
2018-09-18T18:57:57.619Z,2.80
2018-09-18T19:00:27.517Z,3.47
2018-09-18T19:02:57.135Z,3.12
2018-09-18T19:05:26.791Z,3.05
2018-09-18T19:07:56.484Z,3.10
2018-09-18T19:10:26.187Z,3.00
2018-09-18T19:12:55.859Z,3.08
2018-09-18T19:15:25.516Z,3.15
2018-09-18T19:17:55.295Z,2.85
2018-09-18T19:20:24.986Z,3.37
2018-09-18T19:22:54.678Z,3.25
2018-09-18T19:25:24.368Z,2.83
2018-09-18T19:27:54.088Z,3.35
2018-09-18T19:30:23.776Z,3.00
2018-09-18T19:32:53.436Z,3.15
2018-09-18T19:35:23.144Z,2.60
2018-09-18T19:37:52.818Z,3.33
2018-09-18T19:40:22.545Z,3.50
2018-09-18T19:42:52.213Z,3.35
2018-09-18T19:45:21.868Z,3.17
2018-09-18T19:47:51.585Z,3.22
2018-09-18T19:50:21.289Z,3.17
2018-09-18T19:52:51.220Z,2.83
2018-09-18T19:55:20.927Z,3.17
2018-09-18T19:57:50.587Z,3.00
2018-09-18T20:00:20.252Z,3.20
2018-09-18T20:02:49.908Z,3.62
2018-09-18T20:05:19.568Z,3.00
2018-09-18T20:07:49.256Z,3.30
2018-09-18T20:10:18.895Z,3.00
2018-09-18T20:12:48.609Z,3.70
2018-09-18T20:15:18.274Z,3.50
2018-09-18T20:17:47.922Z,3.58
2018-09-18T20:20:17.612Z,3.08
2018-09-18T20:22:47.297Z,3.22
2018-09-18T20:25:16.974Z,3.12
2018-09-18T20:27:46.628Z,3.33
2018-09-18T20:30:16.324Z,3.25
2018-09-18T20:32:45.971Z,3.65
2018-09-18T20:35:15.626Z,3.20
2018-09-18T20:37:45.284Z,3.35
2018-09-18T20:40:14.981Z,3.25
2018-09-18T20:42:44.645Z,3.62
2018-09-18T20:45:14.336Z,3.58
2018-09-18T20:47:43.976Z,3.40
2018-09-18T20:50:13.712Z,2.90
2018-09-18T20:52:43.385Z,2.92
2018-09-18T20:55:13.063Z,3.22
2018-09-18T20:57:42.740Z,2.95
2018-09-18T21:00:12.417Z,3.10
2018-09-18T21:02:42.112Z,2.80
2018-09-18T21:05:11.804Z,3.55
2018-09-18T21:07:41.470Z,3.10
2018-09-18T21:10:11.252Z,2.95
2018-09-18T21:12:40.950Z,3.17
2018-09-18T21:15:10.600Z,3.40
2018-09-18T21:17:40.269Z,2.90
2018-09-18T21:20:09.980Z,3.00
2018-09-18T21:22:39.633Z,2.72
2018-09-18T21:25:33.421Z,2.92
2018-09-18T21:28:03.089Z,2.50
2018-09-18T21:30:32.820Z,2.80
2018-09-18T21:33:02.500Z,2.30
2018-09-18T21:35:32.128Z,2.40
2018-09-18T21:38:01.781Z,2.60
2018-09-18T21:40:31.472Z,2.37
2018-09-18T21:43:01.116Z,2.58
2018-09-18T21:45:30.817Z,2.60
2018-09-18T21:48:00.472Z,2.80
2018-09-18T21:50:32.531Z,2.52
2018-09-18T21:53:02.187Z,2.73
2018-09-18T21:55:31.824Z,2.40
2018-09-18T21:58:01.945Z,2.42
2018-09-18T22:00:31.665Z,2.77
2018-09-18T22:03:02.155Z,2.53
2018-09-18T22:05:32.122Z,2.33
2018-09-18T22:08:02.594Z,3.17
2018-09-18T22:10:32.248Z,3.03
2018-09-18T22:13:02.536Z,3.10
2018-09-18T22:15:32.840Z,3.20
2018-09-18T22:18:02.548Z,2.80
2018-09-18T22:20:32.199Z,3.20
2018-09-18T22:23:01.867Z,3.03
2018-09-18T22:25:31.539Z,3.10
2018-09-18T22:28:01.197Z,2.90
2018-09-18T22:30:30.919Z,2.80
2018-09-18T22:33:00.565Z,2.80
2018-09-18T22:35:30.246Z,3.10
2018-09-18T22:37:59.895Z,3.10
2018-09-18T22:40:29.561Z,3.13
2018-09-18T22:42:59.272Z,3.10
2018-09-18T22:45:28.968Z,3.20
2018-09-18T22:47:58.654Z,3.20
2018-09-18T22:50:28.307Z,2.90
2018-09-18T22:52:57.979Z,3.40
2018-09-18T22:55:27.641Z,3.00
2018-09-18T22:57:57.333Z,3.10
2018-09-18T23:00:27.004Z,3.07
2018-09-18T23:02:56.672Z,3.07
2018-09-18T23:05:26.364Z,3.33
2018-09-18T23:07:56.025Z,3.30
2018-09-18T23:10:25.715Z,4.60
2018-09-18T23:12:55.378Z,6.27
2018-09-18T23:15:25.084Z,6.50
2018-09-18T23:17:54.745Z,6.00
2018-09-18T23:20:24.424Z,7.00
2018-09-18T23:22:54.119Z,6.83
2018-09-18T23:25:23.814Z,8.23
2018-09-18T23:27:53.484Z,7.57
2018-09-18T23:30:23.221Z,8.37
2018-09-18T23:32:52.913Z,8.30
2018-09-18T23:35:22.666Z,7.90
2018-09-18T23:37:52.320Z,7.60
2018-09-18T23:40:21.988Z,7.87
2018-09-18T23:42:51.696Z,8.03
2018-09-18T23:45:21.353Z,8.77
2018-09-18T23:47:51.056Z,8.80
2018-09-18T23:50:20.737Z,8.67
2018-09-18T23:52:50.455Z,9.00
2018-09-18T23:55:20.134Z,9.37
2018-09-18T23:57:49.802Z,9.70
